createdAt,value
2018-03-15T00:01:48.567Z,69.70
2018-03-15T00:04:14.759Z,69.60
2018-03-15T00:06:41.687Z,69.60
2018-03-15T00:09:08.662Z,69.30
2018-03-15T00:11:34.907Z,69.30
2018-03-15T00:14:01.188Z,69.50
2018-03-15T00:16:28.301Z,69.50
2018-03-15T00:18:54.540Z,69.40
2018-03-15T00:21:20.759Z,69.30
2018-03-15T00:26:37.244Z,69.00
2018-03-15T00:29:04.189Z,69.50
2018-03-15T00:31:31.514Z,69.60
2018-03-15T00:33:57.733Z,69.60
2018-03-15T00:36:23.956Z,69.50
2018-03-15T00:38:50.204Z,69.50
2018-03-15T00:41:16.405Z,69.50
2018-03-15T00:43:42.618Z,69.80
2018-03-15T00:46:08.841Z,69.70
2018-03-15T00:48:35.441Z,69.60
2018-03-15T00:51:02.388Z,69.60
2018-03-15T00:53:29.301Z,69.80
2018-03-15T00:55:55.492Z,69.70
2018-03-15T00:58:21.695Z,69.90
2018-03-15T01:00:48.653Z,69.70
2018-03-15T01:03:15.307Z,69.70
2018-03-15T01:05:41.578Z,69.80
2018-03-15T01:08:07.762Z,69.70
2018-03-15T01:10:33.951Z,69.10
2018-03-15T01:13:00.142Z,69.70
2018-03-15T01:15:26.348Z,69.90
2018-03-15T01:17:52.536Z,69.00
2018-03-15T01:20:18.720Z,69.60
2018-03-15T01:22:44.899Z,69.80
2018-03-15T01:25:11.871Z,70.00
2018-03-15T01:27:38.020Z,69.90
2018-03-15T01:30:04.184Z,70.00
2018-03-15T01:32:30.375Z,69.90
2018-03-15T01:34:56.538Z,69.90
2018-03-15T01:37:22.757Z,70.10
2018-03-15T01:39:48.920Z,69.90
2018-03-15T01:42:15.852Z,70.00
2018-03-15T01:44:42.213Z,70.00
2018-03-15T01:47:08.403Z,70.00
2018-03-15T01:49:34.561Z,70.10
2018-03-15T01:52:00.756Z,70.00
2018-03-15T01:54:26.893Z,70.00
2018-03-15T01:56:53.071Z,70.10
2018-03-15T01:59:19.222Z,70.30
2018-03-15T02:01:45.439Z,70.00
2018-03-15T02:04:11.642Z,69.80
2018-03-15T02:06:37.858Z,70.00
2018-03-15T02:09:04.103Z,70.00
2018-03-15T02:11:30.302Z,69.90
2018-03-15T02:13:57.246Z,69.90
2018-03-15T02:16:24.151Z,69.80
2018-03-15T02:18:50.355Z,69.80
2018-03-15T02:21:16.512Z,69.80
2018-03-15T02:23:42.731Z,69.60
2018-03-15T02:26:08.912Z,69.60
2018-03-15T02:28:35.167Z,69.70
2018-03-15T02:31:01.375Z,69.40
2018-03-15T02:33:28.303Z,69.90
2018-03-15T02:35:54.491Z,69.90
2018-03-15T02:38:20.710Z,69.60
2018-03-15T02:40:46.925Z,69.30
2018-03-15T02:43:13.154Z,69.30
2018-03-15T02:45:39.379Z,69.30
2018-03-15T02:48:05.563Z,69.00
2018-03-15T02:50:31.741Z,69.20
2018-03-15T02:52:57.953Z,69.10
2018-03-15T02:55:24.849Z,69.10
2018-03-15T02:57:51.052Z,69.00
2018-03-15T03:00:17.240Z,69.10
2018-03-15T03:02:44.229Z,69.00
2018-03-15T03:05:10.410Z,68.60
2018-03-15T03:07:37.452Z,69.50
2018-03-15T03:10:03.652Z,69.40
2018-03-15T03:12:29.852Z,70.10
2018-03-15T03:14:56.053Z,69.40
2018-03-15T03:17:23.026Z,69.80
2018-03-15T03:19:49.292Z,69.70
2018-03-15T03:22:15.596Z,69.80
2018-03-15T03:24:41.802Z,69.80
2018-03-15T03:27:08.004Z,69.80
2018-03-15T03:29:34.986Z,69.90
2018-03-15T03:32:01.179Z,69.80
2018-03-15T03:34:28.129Z,70.10
2018-03-15T03:36:55.048Z,70.20
2018-03-15T03:39:21.225Z,70.10
2018-03-15T03:41:47.422Z,70.10
2018-03-15T03:44:13.633Z,70.10
2018-03-15T03:46:39.846Z,70.10
2018-03-15T03:49:06.064Z,69.60
2018-03-15T03:51:32.320Z,70.10
2018-03-15T03:53:58.558Z,70.10
2018-03-15T03:56:24.763Z,70.10
2018-03-15T03:58:50.980Z,70.10
2018-03-15T04:01:17.141Z,70.10
2018-03-15T04:03:43.387Z,70.20
2018-03-15T04:06:09.577Z,70.60
2018-03-15T04:08:36.468Z,70.00
2018-03-15T04:11:03.387Z,70.50
2018-03-15T04:13:29.572Z,70.50
2018-03-15T04:15:55.891Z,70.80
2018-03-15T04:18:22.111Z,70.90
2018-03-15T04:20:49.071Z,71.10
2018-03-15T04:23:15.272Z,71.10
2018-03-15T04:25:42.158Z,71.10
2018-03-15T04:28:08.326Z,71.10
2018-03-15T04:30:34.525Z,71.00
2018-03-15T04:33:00.778Z,70.90
2018-03-15T04:35:26.946Z,71.00
2018-03-15T04:37:53.931Z,70.80
2018-03-15T04:40:20.123Z,70.80
2018-03-15T04:42:46.322Z,70.80
2018-03-15T04:45:19.452Z,70.80
2018-03-15T04:47:45.616Z,70.60
2018-03-15T04:50:11.778Z,70.70
2018-03-15T04:52:38.717Z,71.10
2018-03-15T04:55:04.921Z,70.50
2018-03-15T04:57:31.113Z,71.00
2018-03-15T04:59:57.374Z,70.90
2018-03-15T05:02:23.632Z,71.00
2018-03-15T05:04:49.802Z,71.00
2018-03-15T05:07:15.992Z,71.00
2018-03-15T05:09:42.974Z,71.10
2018-03-15T05:12:09.166Z,70.60
2018-03-15T05:14:35.363Z,71.20
2018-03-15T05:17:01.611Z,71.10
2018-03-15T05:19:27.743Z,71.00
2018-03-15T05:21:53.905Z,71.20
2018-03-15T05:24:20.133Z,71.40
2018-03-15T05:26:46.382Z,71.30
2018-03-15T05:29:12.645Z,71.00
2018-03-15T05:31:38.763Z,70.60
2018-03-15T05:34:04.988Z,71.10
2018-03-15T05:36:31.185Z,71.20
2018-03-15T05:38:57.401Z,70.90
2018-03-15T05:41:23.623Z,70.30
2018-03-15T05:43:51.173Z,71.00
2018-03-15T05:46:18.113Z,70.80
2018-03-15T05:48:45.113Z,71.00
2018-03-15T05:51:11.299Z,70.80
2018-03-15T05:53:39.222Z,70.50
2018-03-15T05:56:05.403Z,70.50
2018-03-15T05:58:31.602Z,69.80
2018-03-15T06:00:57.850Z,70.30
2018-03-15T06:03:24.790Z,70.10
2018-03-15T06:05:51.697Z,70.10
2018-03-15T06:08:17.919Z,70.10
2018-03-15T06:10:44.114Z,70.20
2018-03-15T06:13:11.006Z,69.30
2018-03-15T06:15:37.161Z,69.30
2018-03-15T06:18:04.104Z,68.60
2018-03-15T06:20:30.339Z,68.50
2018-03-15T06:22:56.537Z,68.00
2018-03-15T06:25:22.706Z,68.30
2018-03-15T06:27:49.643Z,70.10
2018-03-15T06:30:16.671Z,67.10
2018-03-15T06:32:42.900Z,67.10
2018-03-15T06:35:10.131Z,65.10
2018-03-15T06:37:36.335Z,65.10
2018-03-15T06:40:02.568Z,63.70
2018-03-15T06:42:28.750Z,63.10
2018-03-15T06:44:54.957Z,63.00
2018-03-15T06:47:21.135Z,62.30
2018-03-15T06:49:48.096Z,63.60
2018-03-15T06:52:14.278Z,63.60
2018-03-15T06:54:41.357Z,64.30
2018-03-15T06:57:08.703Z,64.20
2018-03-15T06:59:35.683Z,63.70
2018-03-15T07:02:01.951Z,63.70
2018-03-15T07:04:28.183Z,63.60
2018-03-15T07:06:54.396Z,62.20
2018-03-15T07:09:20.576Z,60.50
2018-03-15T07:11:46.891Z,59.60
2018-03-15T07:14:13.794Z,58.10
2018-03-15T07:16:40.005Z,58.10
2018-03-15T07:19:06.192Z,57.40
2018-03-15T07:21:33.143Z,56.60
2018-03-15T07:24:00.076Z,55.10
2018-03-15T07:26:26.270Z,55.00
2018-03-15T07:28:52.574Z,54.50
2018-03-15T07:31:18.785Z,54.60
2018-03-15T07:33:45.756Z,52.30
2018-03-15T07:36:12.038Z,52.40
2018-03-15T07:38:38.884Z,51.20
2018-03-15T07:41:05.152Z,51.30
2018-03-15T07:43:31.351Z,51.20
2018-03-15T07:45:58.327Z,51.00
2018-03-15T07:48:24.518Z,51.00
2018-03-15T07:50:51.603Z,53.30
2018-03-15T07:53:17.774Z,52.90
2018-03-15T07:55:44.569Z,53.50
2018-03-15T07:58:10.771Z,53.90
2018-03-15T08:00:38.607Z,55.40
2018-03-15T08:03:05.163Z,55.40
2018-03-15T08:05:31.327Z,55.40
2018-03-15T08:07:57.514Z,55.70
2018-03-15T08:10:23.704Z,54.50
2018-03-15T08:12:49.906Z,53.90
2018-03-15T08:15:17.758Z,53.50
2018-03-15T08:17:44.688Z,52.30
2018-03-15T08:20:10.861Z,52.40
2018-03-15T08:22:37.060Z,52.00
2018-03-15T08:25:04.044Z,51.30
2018-03-15T08:27:30.196Z,51.30
2018-03-15T08:29:56.404Z,50.90
2018-03-15T08:32:22.582Z,50.50
2018-03-15T08:34:49.569Z,50.40
2018-03-15T08:37:15.773Z,50.40
2018-03-15T08:39:42.008Z,51.20
2018-03-15T08:42:08.814Z,51.50
2018-03-15T08:44:35.023Z,52.00
2018-03-15T08:47:01.198Z,52.70
2018-03-15T08:49:28.436Z,52.60
2018-03-15T08:51:54.641Z,52.60
2018-03-15T08:54:20.868Z,52.90
2018-03-15T08:56:47.341Z,52.90
2018-03-15T08:59:14.257Z,52.20
2018-03-15T09:01:40.485Z,52.10
2018-03-15T09:04:06.730Z,52.00
2018-03-15T09:06:32.964Z,52.30
2018-03-15T09:09:00.768Z,52.50
2018-03-15T09:11:27.014Z,52.40
2018-03-15T09:13:53.175Z,51.60
2018-03-15T09:16:19.444Z,51.80
2018-03-15T09:18:45.621Z,50.70
2018-03-15T09:21:11.863Z,50.80
2018-03-15T09:23:38.102Z,50.70
2018-03-15T09:26:04.268Z,50.70
2018-03-15T09:28:30.462Z,50.60
2018-03-15T09:30:57.415Z,51.30
2018-03-15T09:33:23.661Z,51.30
2018-03-15T09:35:49.937Z,50.70
2018-03-15T09:38:16.126Z,50.80
2018-03-15T09:40:42.332Z,51.00
2018-03-15T09:43:09.268Z,50.60
2018-03-15T09:45:36.175Z,50.40
2018-03-15T09:48:02.387Z,50.40
2018-03-15T09:50:28.612Z,49.50
2018-03-15T09:52:54.794Z,49.70
2018-03-15T09:55:20.991Z,48.80
2018-03-15T09:57:47.208Z,48.50
2018-03-15T10:00:13.483Z,48.70
2018-03-15T10:02:40.452Z,47.90
2018-03-15T10:05:06.687Z,47.80
2018-03-15T10:07:32.880Z,46.60
2018-03-15T10:09:59.164Z,46.00
2018-03-15T10:12:25.351Z,46.30
2018-03-15T10:14:53.258Z,45.20
2018-03-15T10:17:19.431Z,45.20
2018-03-15T10:19:45.624Z,44.90
2018-03-15T10:22:11.916Z,44.60
2018-03-15T10:24:38.066Z,45.00
2018-03-15T10:27:04.328Z,45.40
2018-03-15T10:29:30.576Z,44.50
2018-03-15T10:31:56.843Z,44.30
2018-03-15T10:34:23.063Z,44.00
2018-03-15T10:36:50.026Z,43.30
2018-03-15T10:39:17.086Z,43.30
2018-03-15T10:41:43.318Z,43.90
2018-03-15T10:44:09.560Z,42.60
2018-03-15T10:46:35.735Z,42.60
2018-03-15T10:49:02.876Z,42.30
2018-03-15T10:51:29.115Z,42.20
2018-03-15T10:53:56.019Z,41.30
2018-03-15T10:56:22.248Z,41.30
2018-03-15T10:58:48.462Z,41.50
2018-03-15T11:01:20.627Z,41.90
2018-03-15T11:03:49.838Z,42.10
2018-03-15T11:06:22.084Z,42.00
2018-03-15T11:08:57.380Z,42.30
2018-03-15T11:11:23.627Z,42.90
2018-03-15T11:13:50.561Z,42.90
2018-03-15T11:16:16.750Z,42.80
2018-03-15T11:18:42.945Z,43.40
2018-03-15T11:21:09.152Z,44.30
2018-03-15T11:23:35.354Z,44.30
2018-03-15T11:26:01.563Z,44.50
2018-03-15T11:28:27.814Z,44.80
2018-03-15T11:30:54.040Z,45.10
2018-03-15T11:33:20.234Z,45.00
2018-03-15T11:35:46.450Z,44.90
2018-03-15T11:38:12.657Z,45.70
2018-03-15T11:40:39.598Z,46.10
2018-03-15T11:43:06.579Z,46.80
2018-03-15T11:45:32.781Z,46.80
2018-03-15T11:47:59.718Z,47.00
2018-03-15T11:50:26.602Z,45.70
2018-03-15T11:52:52.810Z,46.10
2018-03-15T11:55:19.142Z,45.80
2018-03-15T11:57:45.354Z,45.90
2018-03-15T12:00:12.294Z,46.10
2018-03-15T12:02:38.505Z,46.00
2018-03-15T12:05:04.710Z,46.10
2018-03-15T12:07:30.954Z,45.80
2018-03-15T12:09:57.215Z,46.10
2018-03-15T12:12:24.219Z,46.90
2018-03-15T12:14:50.472Z,46.90
2018-03-15T12:17:16.684Z,47.00
2018-03-15T12:19:42.844Z,47.10
2018-03-15T12:22:09.078Z,47.10
2018-03-15T12:24:36.000Z,47.30
2018-03-15T12:27:02.222Z,47.20
2018-03-15T12:29:29.124Z,47.90
2018-03-15T12:31:55.338Z,47.80
2018-03-15T12:34:22.887Z,47.70
2018-03-15T12:36:49.162Z,47.80
2018-03-15T12:39:15.499Z,48.30
2018-03-15T12:41:41.730Z,49.00
2018-03-15T12:44:07.998Z,48.30
2018-03-15T12:46:34.283Z,49.20
2018-03-15T12:49:00.475Z,48.80
2018-03-15T12:51:27.386Z,48.70
2018-03-15T12:53:53.549Z,48.60
2018-03-15T12:56:20.502Z,47.90
2018-03-15T12:58:47.465Z,47.70
2018-03-15T13:01:13.693Z,47.70
2018-03-15T13:03:39.940Z,47.50
2018-03-15T13:06:06.110Z,47.60
2018-03-15T13:08:33.089Z,47.60
2018-03-15T13:10:59.299Z,47.50
2018-03-15T13:13:26.256Z,47.20
2018-03-15T13:15:53.280Z,48.40
2018-03-15T13:18:19.443Z,47.70
2018-03-15T13:20:45.744Z,48.10
2018-03-15T13:23:12.723Z,47.80
2018-03-15T13:25:39.711Z,47.30
2018-03-15T13:28:05.895Z,45.70
2018-03-15T13:30:33.117Z,46.10
2018-03-15T13:32:59.308Z,44.60
2018-03-15T13:35:25.511Z,44.80
2018-03-15T13:37:51.699Z,45.30
2018-03-15T13:40:17.955Z,45.80
2018-03-15T13:42:44.134Z,45.20
2018-03-15T13:45:10.346Z,45.00
2018-03-15T13:47:36.559Z,45.90
2018-03-15T13:50:02.831Z,46.20
2018-03-15T13:52:29.046Z,45.00
2018-03-15T13:54:55.240Z,46.10
2018-03-15T13:57:21.505Z,46.50
2018-03-15T13:59:48.396Z,46.50
2018-03-15T14:02:15.336Z,46.80
2018-03-15T14:04:42.307Z,46.90
2018-03-15T14:07:08.503Z,46.90
2018-03-15T14:09:35.445Z,48.00
2018-03-15T14:12:02.473Z,48.70
2018-03-15T14:14:28.731Z,48.10
2018-03-15T14:16:54.921Z,47.50
2018-03-15T14:19:21.110Z,47.30
2018-03-15T14:21:47.374Z,47.70
2018-03-15T14:24:13.605Z,48.10
2018-03-15T14:26:39.831Z,47.50
2018-03-15T14:29:06.054Z,48.00
2018-03-15T14:31:32.233Z,48.00
2018-03-15T14:43:44.242Z,49.60
2018-03-15T14:46:10.411Z,49.50
2018-03-15T14:48:36.573Z,49.50
2018-03-15T14:51:02.822Z,49.70
2018-03-15T14:53:29.010Z,49.70
2018-03-15T14:55:55.972Z,50.40
2018-03-15T14:58:22.213Z,50.40
2018-03-15T15:00:48.471Z,50.50
2018-03-15T15:03:14.695Z,51.00
2018-03-15T15:05:40.976Z,50.90
2018-03-15T15:08:07.946Z,50.60
2018-03-15T15:10:34.106Z,50.60
2018-03-15T15:13:00.331Z,50.30
2018-03-15T15:15:26.646Z,50.70
2018-03-15T15:17:52.831Z,50.70
2018-03-15T15:20:19.811Z,50.10
2018-03-15T15:22:46.055Z,50.10
2018-03-15T15:25:12.673Z,50.80
2018-03-15T16:49:35.185Z,52.70
2018-03-15T16:52:01.411Z,53.70
2018-03-15T16:54:27.654Z,54.00
2018-03-15T16:56:53.842Z,53.90
2018-03-15T16:59:20.020Z,54.40
2018-03-15T17:01:46.213Z,54.00
2018-03-15T17:04:13.444Z,54.30
2018-03-15T17:06:39.652Z,54.20
2018-03-15T17:09:05.932Z,54.30
2018-03-15T17:11:32.165Z,54.60
2018-03-15T17:13:58.381Z,55.20
2018-03-15T17:16:24.595Z,55.90
2018-03-15T17:18:51.649Z,55.70
2018-03-15T17:21:18.641Z,56.30
2018-03-15T17:23:44.825Z,56.30
2018-03-15T17:26:11.747Z,56.40
2018-03-15T17:28:52.877Z,56.40
2018-03-15T17:31:19.151Z,57.50
2018-03-15T17:33:45.323Z,57.20
2018-03-15T17:36:12.239Z,56.90
2018-03-15T17:38:38.509Z,56.90
2018-03-15T17:41:04.809Z,56.90
2018-03-15T17:43:31.806Z,57.20
2018-03-15T17:45:58.092Z,57.20
2018-03-15T17:48:25.079Z,58.00
2018-03-15T17:50:52.534Z,58.00
2018-03-15T17:53:18.742Z,62.90
2018-03-15T17:55:44.950Z,59.60
2018-03-15T17:58:11.940Z,60.70
2018-03-15T18:00:38.140Z,60.50
2018-03-15T18:03:05.603Z,58.20
2018-03-15T18:05:31.822Z,58.40
2018-03-15T18:07:58.937Z,56.90
2018-03-15T18:10:25.199Z,56.90
2018-03-15T18:12:52.208Z,57.60
2018-03-15T18:15:18.480Z,57.50
2018-03-15T18:17:45.401Z,58.10
2018-03-15T18:20:11.652Z,58.10
2018-03-15T18:22:37.938Z,58.40
2018-03-15T18:25:04.228Z,58.90
2018-03-15T18:27:30.564Z,59.00
2018-03-15T18:29:57.514Z,59.90
2018-03-15T18:32:23.749Z,59.90
2018-03-15T18:34:50.010Z,59.90
2018-03-15T18:37:16.674Z,59.50
2018-03-15T18:39:42.900Z,60.90
2018-03-15T18:42:09.099Z,61.70
2018-03-15T18:44:35.322Z,61.60
2018-03-15T18:47:01.620Z,62.10
2018-03-15T18:49:27.839Z,63.40
2018-03-15T18:51:55.099Z,62.40
2018-03-15T18:54:21.461Z,61.60
2018-03-15T18:56:47.726Z,62.00
2018-03-15T18:59:13.992Z,62.30
2018-03-15T19:01:42.141Z,62.50
2018-03-15T19:04:09.410Z,62.10
2018-03-15T19:06:36.367Z,62.50
2018-03-15T19:09:04.568Z,62.10
2018-03-15T19:11:32.015Z,62.60
2018-03-15T19:13:59.175Z,62.60
2018-03-15T19:16:25.471Z,62.50
2018-03-15T19:18:52.534Z,62.70
2018-03-15T19:21:19.593Z,62.60
2018-03-15T19:23:45.777Z,63.00
2018-03-15T19:26:12.156Z,62.60
2018-03-15T19:28:38.709Z,62.60
2018-03-15T19:31:05.308Z,62.30
2018-03-15T19:33:31.639Z,62.30
2018-03-15T19:35:58.518Z,62.70
2018-03-15T19:38:28.697Z,62.80
2018-03-15T19:40:55.668Z,63.50
2018-03-15T19:43:21.971Z,62.80
2018-03-15T19:45:48.393Z,63.40
2018-03-15T19:48:15.130Z,62.80
2018-03-15T19:50:44.163Z,63.60
2018-03-15T19:53:10.363Z,63.50
2018-03-15T19:55:37.334Z,62.10
2018-03-15T19:58:03.594Z,62.00
2018-03-15T20:00:30.930Z,62.60
2018-03-15T20:02:58.210Z,62.30
2018-03-15T20:05:24.411Z,63.00
2018-03-15T20:07:50.830Z,62.60
2018-03-15T20:10:18.376Z,62.80
2018-03-15T20:12:45.479Z,63.80
2018-03-15T20:15:14.742Z,63.40
2018-03-15T20:17:41.113Z,63.60
2018-03-15T20:20:07.382Z,63.80
2018-03-15T20:31:37.751Z,64.50
2018-03-15T20:34:11.656Z,65.00
2018-03-15T20:36:37.956Z,65.60
2018-03-15T20:39:11.998Z,65.70
2018-03-15T20:41:40.560Z,65.60
2018-03-15T20:44:08.495Z,65.60
2018-03-15T20:46:40.903Z,65.50
2018-03-15T20:49:15.125Z,65.50
2018-03-15T20:51:42.386Z,65.50
2018-03-15T20:54:10.667Z,65.90
2018-03-15T20:56:38.385Z,65.50
2018-03-15T20:59:06.011Z,66.10
2018-03-15T21:01:32.336Z,65.50
2018-03-15T21:04:01.535Z,65.50
2018-03-15T21:06:28.672Z,65.50
2018-03-15T21:08:55.065Z,65.50
2018-03-15T21:11:22.593Z,65.50
2018-03-15T21:13:52.118Z,65.50
2018-03-15T21:16:21.746Z,65.50
2018-03-15T21:18:51.591Z,66.10
2018-03-15T21:21:22.869Z,65.50
2018-03-15T21:26:25.460Z,65.50
2018-03-15T21:28:51.810Z,65.50
2018-03-15T21:31:20.010Z,65.50
2018-03-15T21:43:31.532Z,66.00
2018-03-15T21:45:58.932Z,66.40
2018-03-15T21:48:25.621Z,66.10
2018-03-15T21:50:53.021Z,66.20
2018-03-15T21:53:19.361Z,66.20
2018-03-15T21:55:45.728Z,66.30
2018-03-15T21:58:11.973Z,66.60
2018-03-15T22:00:38.362Z,66.70
2018-03-15T22:03:04.838Z,67.00
2018-03-15T22:05:31.083Z,67.00
2018-03-15T22:07:58.355Z,67.50
2018-03-15T22:10:25.347Z,68.10
2018-03-15T22:12:52.892Z,67.70
2018-03-15T22:15:19.193Z,68.20
2018-03-15T22:17:46.261Z,68.80
2018-03-15T22:20:13.143Z,68.30
2018-03-15T22:22:40.070Z,68.40
2018-03-15T22:25:06.876Z,69.30
2018-03-15T22:27:34.300Z,69.60
2018-03-15T22:30:00.662Z,69.70
2018-03-15T22:32:28.030Z,70.30
2018-03-15T22:34:54.361Z,69.70
2018-03-15T22:37:21.459Z,70.90
2018-03-15T22:39:47.784Z,69.40
2018-03-15T22:42:14.580Z,69.70
2018-03-15T22:44:43.391Z,70.80
2018-03-15T22:47:09.619Z,70.10
2018-03-15T22:49:37.593Z,70.90
2018-03-15T22:52:03.839Z,70.70
2018-03-15T22:54:31.860Z,71.10
2018-03-15T22:56:59.608Z,71.50
2018-03-15T22:59:25.903Z,71.30
2018-03-15T23:01:52.300Z,71.10
2018-03-15T23:04:18.990Z,71.10
2018-03-15T23:06:45.240Z,70.90
2018-03-15T23:09:11.568Z,70.90
2018-03-15T23:11:38.123Z,71.10
2018-03-15T23:14:06.140Z,71.60
2018-03-15T23:16:32.511Z,71.00
2018-03-15T23:18:59.669Z,71.40
2018-03-15T23:21:28.202Z,72.40
2018-03-15T23:23:54.436Z,72.00
2018-03-15T23:26:21.672Z,72.30
2018-03-15T23:28:48.791Z,72.50
2018-03-15T23:31:16.126Z,72.60
2018-03-15T23:33:43.660Z,73.30
2018-03-15T23:36:09.891Z,72.80
2018-03-15T23:38:36.687Z,73.20
2018-03-15T23:41:03.650Z,73.10
2018-03-15T23:43:30.663Z,73.10
2018-03-15T23:45:57.533Z,73.10
2018-03-15T23:48:25.263Z,73.10
2018-03-15T23:50:53.425Z,73.40
2018-03-15T23:53:19.626Z,74.50
2018-03-15T23:55:45.970Z,74.70
2018-03-15T23:58:12.319Z,74.50
